Roundhead, Ohio
Current Conditions -  °F | °C
As of 6:53 AM on Saturday 20 Dec 2014 (Local Time) from KAOH Reporting Station
Overcast Overcast  
Wind Chill: 31°   Ceiling: 2700
Heat Index: 31°   Visibility: 7mi
Dew Point: 24°   Wind: 0mph
Humidity: 76%   Direction: NA
Pressure: 30.26"   Gusts: NA
Location:  40.56°N, 83.84°W
Report Text: KAOH 201153Z AUTO 00000KT 7SM OVC027 M01/M04 A3026 RMK AO2 SLP256 T10061044 11006 21011 55004
Loading
Personal Weather Stations






























Interactive Weather Map New forecast layout! Learn more

10-Day Weather Forecast

Advertisements
Track Severe Weather on mobile